Aviation Digital Data Service (ADDS)

Output produced by METARs form (1307 UTC 24 August 2019)
found at http://www.aviationweather.gov/metar/data/
 
METAR text: KPSP 241253Z 31003KT 10SM CLR 29/16 A2989 RMK AO2 SLP117 T02890156
Conditions at: KPSP (PALM SPRINGS , CA, US) observed 1253 UTC 24 August 2019
Temperature: 28.9°C (84°F)
Dewpoint: 15.6°C (60°F) [RH = 45%]
Pressure (altimeter): 29.89 inches Hg (1012.3 mb)
[Sea-level pressure: 1011.7 mb]
Winds: from the NW (310 degrees) at 3 MPH (3 knots; 1.5 m/s)
Visibility: 10 or more miles (16+ km)
Ceiling: at least 12,000 feet AGL
Clouds: sky clear below 12,000 feet AGL
Weather: no significant weather observed at this time

METAR text: KPSP 241153Z AUTO 31004KT 10SM CLR 29/18 A2988 RMK AO2 SLP113 T02890178 10333 20289 53003
Conditions at: KPSP (PALM SPRINGS , CA, US) observed 1153 UTC 24 August 2019
Temperature: 28.9°C (84°F)
Dewpoint: 17.8°C (64°F) [RH = 51%]
Pressure (altimeter): 29.88 inches Hg (1011.9 mb)
[Sea-level pressure: 1011.3 mb]
Winds: from the NW (310 degrees) at 5 MPH (4 knots; 2.1 m/s)
Visibility: 10 or more miles (16+ km)
Ceiling: at least 12,000 feet AGL
Clouds: sky clear below 12,000 feet AGL
Weather: automated observation with no human augmentation;
there may or may not be significant weather present at this time

METAR text: KPSP 241053Z AUTO 33006KT 10SM CLR 29/17 A2988 RMK AO2 SLP112 T02940167
Conditions at: KPSP (PALM SPRINGS , CA, US) observed 1053 UTC 24 August 2019
Temperature: 29.4°C (85°F)
Dewpoint: 16.7°C (62°F) [RH = 46%]
Pressure (altimeter): 29.88 inches Hg (1011.9 mb)
[Sea-level pressure: 1011.2 mb]
Winds: from the NNW (330 degrees) at 7 MPH (6 knots; 3.1 m/s)
Visibility: 10 or more miles (16+ km)
Ceiling: at least 12,000 feet AGL
Clouds: sky clear below 12,000 feet AGL
Weather: automated observation with no human augmentation;
there may or may not be significant weather present at this time

METAR text: KPSP 240953Z AUTO 33008KT 10SM CLR 30/14 A2988 RMK AO2 SLP112 T03000139
Conditions at: KPSP (PALM SPRINGS , CA, US) observed 0953 UTC 24 August 2019
Temperature: 30.0°C (86°F)
Dewpoint: 13.9°C (57°F) [RH = 37%]
Pressure (altimeter): 29.88 inches Hg (1011.9 mb)
[Sea-level pressure: 1011.2 mb]
Winds: from the NNW (330 degrees) at 9 MPH (8 knots; 4.1 m/s)
Visibility: 10 or more miles (16+ km)
Ceiling: at least 12,000 feet AGL
Clouds: sky clear below 12,000 feet AGL
Weather: automated observation with no human augmentation;
there may or may not be significant weather present at this time

METAR text: KPSP 240853Z AUTO 32007KT 10SM CLR 31/11 A2987 RMK AO2 SLP111 T03060111 51013
Conditions at: KPSP (PALM SPRINGS , CA, US) observed 0853 UTC 24 August 2019
Temperature: 30.6°C (87°F)
Dewpoint: 11.1°C (52°F) [RH = 30%]
Pressure (altimeter): 29.87 inches Hg (1011.6 mb)
[Sea-level pressure: 1011.1 mb]
Winds: from the NW (320 degrees) at 8 MPH (7 knots; 3.6 m/s)
Visibility: 10 or more miles (16+ km)
Ceiling: at least 12,000 feet AGL
Clouds: sky clear below 12,000 feet AGL
Weather: automated observation with no human augmentation;
there may or may not be significant weather present at this time

METAR text: KPSP 240753Z AUTO 34007KT 10SM CLR 31/11 A2987 RMK AO2 SLP110 T03110111 404060239
Conditions at: KPSP (PALM SPRINGS , CA, US) observed 0753 UTC 24 August 2019
Temperature: 31.1°C (88°F)
Dewpoint: 11.1°C (52°F) [RH = 29%]
Pressure (altimeter): 29.87 inches Hg (1011.6 mb)
[Sea-level pressure: 1011.0 mb]
Winds: from the NNW (340 degrees) at 8 MPH (7 knots; 3.6 m/s)
Visibility: 10 or more miles (16+ km)
Ceiling: at least 12,000 feet AGL
Clouds: sky clear below 12,000 feet AGL
Weather: automated observation with no human augmentation;
there may or may not be significant weather present at this time

METAR text: KPSP 240653Z AUTO 34009KT 10SM CLR 32/12 A2985 RMK AO2 SLP104 T03220122
Conditions at: KPSP (PALM SPRINGS , CA, US) observed 0653 UTC 24 August 2019
Temperature: 32.2°C (90°F)
Dewpoint: 12.2°C (54°F) [RH = 30%]
Pressure (altimeter): 29.85 inches Hg (1010.9 mb)
[Sea-level pressure: 1010.4 mb]
Winds: from the NNW (340 degrees) at 10 MPH (9 knots; 4.6 m/s)
Visibility: 10 or more miles (16+ km)
Ceiling: at least 12,000 feet AGL
Clouds: sky clear below 12,000 feet AGL
Weather: automated observation with no human augmentation;
there may or may not be significant weather present at this time

METAR text: KPSP 240553Z 04005KT 10SM CLR 33/15 A2983 RMK AO2 SLP097 T03330150 10406 20333 53035
Conditions at: KPSP (PALM SPRINGS , CA, US) observed 0553 UTC 24 August 2019
Temperature: 33.3°C (92°F)
Dewpoint: 15.0°C (59°F) [RH = 33%]
Pressure (altimeter): 29.83 inches Hg (1010.2 mb)
[Sea-level pressure: 1009.7 mb]
Winds: from the NE (40 degrees) at 6 MPH (5 knots; 2.6 m/s)
Visibility: 10 or more miles (16+ km)
Ceiling: at least 12,000 feet AGL
Clouds: sky clear below 12,000 feet AGL
Weather: no significant weather observed at this time

METAR text: KPSP 240453Z 04010KT 10SM CLR 33/10 A2980 RMK AO2 SLP086 T03330100
Conditions at: KPSP (PALM SPRINGS , CA, US) observed 0453 UTC 24 August 2019
Temperature: 33.3°C (92°F)
Dewpoint: 10.0°C (50°F) [RH = 24%]
Pressure (altimeter): 29.80 inches Hg (1009.2 mb)
[Sea-level pressure: 1008.6 mb]
Winds: from the NE (40 degrees) at 12 MPH (10 knots; 5.1 m/s)
Visibility: 10 or more miles (16+ km)
Ceiling: at least 12,000 feet AGL
Clouds: sky clear below 12,000 feet AGL
Weather: no significant weather observed at this time

METAR text: KPSP 240353Z 32010KT 10SM CLR 36/07 A2976 RMK AO2 SLP073 T03560072
Conditions at: KPSP (PALM SPRINGS , CA, US) observed 0353 UTC 24 August 2019
Temperature: 35.6°C (96°F)
Dewpoint: 7.2°C (45°F) [RH = 17%]
Pressure (altimeter): 29.76 inches Hg (1007.9 mb)
[Sea-level pressure: 1007.3 mb]
Winds: from the NW (320 degrees) at 12 MPH (10 knots; 5.1 m/s)
Visibility: 10 or more miles (16+ km)
Ceiling: at least 12,000 feet AGL
Clouds: sky clear below 12,000 feet AGL
Weather: no significant weather observed at this time

METAR text: KPSP 240253Z 32007KT 10SM CLR 37/06 A2973 RMK AO2 SLP062 T03720061 53006
Conditions at: KPSP (PALM SPRINGS , CA, US) observed 0253 UTC 24 August 2019
Temperature: 37.2°C (99°F)
Dewpoint: 6.1°C (43°F) [RH = 15%]
Pressure (altimeter): 29.73 inches Hg (1006.9 mb)
[Sea-level pressure: 1006.2 mb]
Winds: from the NW (320 degrees) at 8 MPH (7 knots; 3.6 m/s)
Visibility: 10 or more miles (16+ km)
Ceiling: at least 12,000 feet AGL
Clouds: sky clear below 12,000 feet AGL
Weather: no significant weather observed at this time

METAR text: KPSP 240153Z 34006KT 10SM CLR 38/08 A2971 RMK AO2 SLP056 T03830078
Conditions at: KPSP (PALM SPRINGS , CA, US) observed 0153 UTC 24 August 2019
Temperature: 38.3°C (101°F)
Dewpoint: 7.8°C (46°F) [RH = 16%]
Pressure (altimeter): 29.71 inches Hg (1006.2 mb)
[Sea-level pressure: 1005.6 mb]
Winds: from the NNW (340 degrees) at 7 MPH (6 knots; 3.1 m/s)
Visibility: 10 or more miles (16+ km)
Ceiling: at least 12,000 feet AGL
Clouds: sky clear below 12,000 feet AGL
Weather: no significant weather observed at this time

METAR text: KPSP 240053Z 10006KT 10SM CLR 39/12 A2971 RMK AO2 SLP054 T03940122
Conditions at: KPSP (PALM SPRINGS , CA, US) observed 0053 UTC 24 August 2019
Temperature: 39.4°C (103°F)
Dewpoint: 12.2°C (54°F) [RH = 20%]
Pressure (altimeter): 29.71 inches Hg (1006.2 mb)
[Sea-level pressure: 1005.4 mb]
Winds: from the E (100 degrees) at 7 MPH (6 knots; 3.1 m/s)
Visibility: 10 or more miles (16+ km)
Ceiling: at least 12,000 feet AGL
Clouds: sky clear below 12,000 feet AGL
Weather: no significant weather observed at this time

METAR text: KPSP 232353Z VRB03KT 10SM CLR 40/11 A2971 RMK AO2 SLP055 T04000111 10406 20344 56022
Conditions at: KPSP (PALM SPRINGS , CA, US) observed 2353 UTC 23 August 2019
Temperature: 40.0°C (104°F)
Dewpoint: 11.1°C (52°F) [RH = 18%]
Pressure (altimeter): 29.71 inches Hg (1006.2 mb)
[Sea-level pressure: 1005.5 mb]
Winds: variable direction winds at 3 MPH (3 knots; 1.5 m/s)
Visibility: 10 or more miles (16+ km)
Ceiling: at least 12,000 feet AGL
Clouds: sky clear below 12,000 feet AGL
Weather: no significant weather observed at this time

METAR text: KPSP 232253Z 10005KT 10SM CLR 40/09 A2972 RMK AO2 SLP059 T04000089
Conditions at: KPSP (PALM SPRINGS , CA, US) observed 2253 UTC 23 August 2019
Temperature: 40.0°C (104°F)
Dewpoint: 8.9°C (48°F) [RH = 15%]
Pressure (altimeter): 29.72 inches Hg (1006.5 mb)
[Sea-level pressure: 1005.9 mb]
Winds: from the E (100 degrees) at 6 MPH (5 knots; 2.6 m/s)
Visibility: 10 or more miles (16+ km)
Ceiling: at least 12,000 feet AGL
Clouds: sky clear below 12,000 feet AGL
Weather: no significant weather observed at this time

METAR text: KPSP 232153Z 33005KT 10SM CLR 40/09 A2975 RMK AO2 SLP068 T04000089
Conditions at: KPSP (PALM SPRINGS , CA, US) observed 2153 UTC 23 August 2019
Temperature: 40.0°C (104°F)
Dewpoint: 8.9°C (48°F) [RH = 15%]
Pressure (altimeter): 29.75 inches Hg (1007.5 mb)
[Sea-level pressure: 1006.8 mb]
Winds: from the NNW (330 degrees) at 6 MPH (5 knots; 2.6 m/s)
Visibility: 10 or more miles (16+ km)
Ceiling: at least 12,000 feet AGL
Clouds: sky clear below 12,000 feet AGL
Weather: no significant weather observed at this time

METAR text: KPSP 232053Z 08009KT 10SM CLR 39/09 A2978 RMK AO2 SLP078 T03940094 58017
Conditions at: KPSP (PALM SPRINGS , CA, US) observed 2053 UTC 23 August 2019
Temperature: 39.4°C (103°F)
Dewpoint: 9.4°C (49°F) [RH = 17%]
Pressure (altimeter): 29.78 inches Hg (1008.5 mb)
[Sea-level pressure: 1007.8 mb]
Winds: from the E (80 degrees) at 10 MPH (9 knots; 4.6 m/s)
Visibility: 10 or more miles (16+ km)
Ceiling: at least 12,000 feet AGL
Clouds: sky clear below 12,000 feet AGL
Weather: no significant weather observed at this time

METAR text: KPSP 231953Z 10006KT 10SM CLR 38/10 A2980 RMK AO2 SLP085 T03780100
Conditions at: KPSP (PALM SPRINGS , CA, US) observed 1953 UTC 23 August 2019
Temperature: 37.8°C (100°F)
Dewpoint: 10.0°C (50°F) [RH = 19%]
Pressure (altimeter): 29.80 inches Hg (1009.2 mb)
[Sea-level pressure: 1008.5 mb]
Winds: from the E (100 degrees) at 7 MPH (6 knots; 3.1 m/s)
Visibility: 10 or more miles (16+ km)
Ceiling: at least 12,000 feet AGL
Clouds: sky clear below 12,000 feet AGL
Weather: no significant weather observed at this time

METAR text: KPSP 231853Z VRB05KT 10SM CLR 36/14 A2982 RMK AO2 SLP092 T03610144
Conditions at: KPSP (PALM SPRINGS , CA, US) observed 1853 UTC 23 August 2019
Temperature: 36.1°C (97°F)
Dewpoint: 14.4°C (58°F) [RH = 27%]
Pressure (altimeter): 29.82 inches Hg (1009.9 mb)
[Sea-level pressure: 1009.2 mb]
Winds: variable direction winds at 6 MPH (5 knots; 2.6 m/s)
Visibility: 10 or more miles (16+ km)
Ceiling: at least 12,000 feet AGL
Clouds: sky clear below 12,000 feet AGL
Weather: no significant weather observed at this time

METAR text: KPSP 231753Z 00000KT 10SM CLR 35/18 A2983 RMK AO2 SLP095 T03500178 10350 20239 51005
Conditions at: KPSP (PALM SPRINGS , CA, US) observed 1753 UTC 23 August 2019
Temperature: 35.0°C (95°F)
Dewpoint: 17.8°C (64°F) [RH = 36%]
Pressure (altimeter): 29.83 inches Hg (1010.2 mb)
[Sea-level pressure: 1009.5 mb]
Winds: calm
Visibility: 10 or more miles (16+ km)
Ceiling: at least 12,000 feet AGL
Clouds: sky clear below 12,000 feet AGL
Weather: no significant weather observed at this time

METAR text: KPSP 231653Z 00000KT 10SM CLR 33/18 A2983 RMK AO2 SLP095 T03330178
Conditions at: KPSP (PALM SPRINGS , CA, US) observed 1653 UTC 23 August 2019
Temperature: 33.3°C (92°F)
Dewpoint: 17.8°C (64°F) [RH = 40%]
Pressure (altimeter): 29.83 inches Hg (1010.2 mb)
[Sea-level pressure: 1009.5 mb]
Winds: calm
Visibility: 10 or more miles (16+ km)
Ceiling: at least 12,000 feet AGL
Clouds: sky clear below 12,000 feet AGL
Weather: no significant weather observed at this time

METAR text: KPSP 231553Z VRB03KT 10SM CLR 32/04 A2982 RMK AO2 SLP092 T03220044
Conditions at: KPSP (PALM SPRINGS , CA, US) observed 1553 UTC 23 August 2019
Temperature: 32.2°C (90°F)
Dewpoint: 4.4°C (40°F) [RH = 17%]
Pressure (altimeter): 29.82 inches Hg (1009.9 mb)
[Sea-level pressure: 1009.2 mb]
Winds: variable direction winds at 3 MPH (3 knots; 1.5 m/s)
Visibility: 10 or more miles (16+ km)
Ceiling: at least 12,000 feet AGL
Clouds: sky clear below 12,000 feet AGL
Weather: no significant weather observed at this time

METAR text: KPSP 231453Z 00000KT 10SM CLR 29/03 A2981 RMK AO2 SLP091 T02940028 53011
Conditions at: KPSP (PALM SPRINGS , CA, US) observed 1453 UTC 23 August 2019
Temperature: 29.4°C (85°F)
Dewpoint: 2.8°C (37°F) [RH = 18%]
Pressure (altimeter): 29.81 inches Hg (1009.6 mb)
[Sea-level pressure: 1009.1 mb]
Winds: calm
Visibility: 10 or more miles (16+ km)
Ceiling: at least 12,000 feet AGL
Clouds: sky clear below 12,000 feet AGL
Weather: no significant weather observed at this time

METAR text: KPSP 231353Z 30004KT 10SM CLR 27/05 A2980 RMK AO2 SLP085 T02670050
Conditions at: KPSP (PALM SPRINGS , CA, US) observed 1353 UTC 23 August 2019
Temperature: 26.7°C (80°F)
Dewpoint: 5.0°C (41°F) [RH = 25%]
Pressure (altimeter): 29.80 inches Hg (1009.2 mb)
[Sea-level pressure: 1008.5 mb]
Winds: from the WNW (300 degrees) at 5 MPH (4 knots; 2.1 m/s)
Visibility: 10 or more miles (16+ km)
Ceiling: at least 12,000 feet AGL
Clouds: sky clear below 12,000 feet AGL
Weather: no significant weather observed at this time

METAR text: KPSP 231253Z 25004KT 10SM CLR 25/07 A2979 RMK AO2 SLP084 T02500072
Conditions at: KPSP (PALM SPRINGS , CA, US) observed 1253 UTC 23 August 2019
Temperature: 25.0°C (77°F)
Dewpoint: 7.2°C (45°F) [RH = 32%]
Pressure (altimeter): 29.79 inches Hg (1008.9 mb)
[Sea-level pressure: 1008.4 mb]
Winds: from the WSW (250 degrees) at 5 MPH (4 knots; 2.1 m/s)
Visibility: 10 or more miles (16+ km)
Ceiling: at least 12,000 feet AGL
Clouds: sky clear below 12,000 feet AGL
Weather: no significant weather observed at this time

METAR text: KPSP 231153Z AUTO 35003KT 10SM CLR 27/06 A2978 RMK AO2 SLP080 T02670061 10328 20250 53027
Conditions at: KPSP (PALM SPRINGS , CA, US) observed 1153 UTC 23 August 2019
Temperature: 26.7°C (80°F)
Dewpoint: 6.1°C (43°F) [RH = 27%]
Pressure (altimeter): 29.78 inches Hg (1008.5 mb)
[Sea-level pressure: 1008.0 mb]
Winds: from the N (350 degrees) at 3 MPH (3 knots; 1.5 m/s)
Visibility: 10 or more miles (16+ km)
Ceiling: at least 12,000 feet AGL
Clouds: sky clear below 12,000 feet AGL
Weather: automated observation with no human augmentation;
there may or may not be significant weather present at this time

METAR text: KPSP 231053Z AUTO 08005KT 10SM CLR 25/06 A2975 RMK AO2 SLP071 T02500061
Conditions at: KPSP (PALM SPRINGS , CA, US) observed 1053 UTC 23 August 2019
Temperature: 25.0°C (77°F)
Dewpoint: 6.1°C (43°F) [RH = 30%]
Pressure (altimeter): 29.75 inches Hg (1007.5 mb)
[Sea-level pressure: 1007.1 mb]
Winds: from the E (80 degrees) at 6 MPH (5 knots; 2.6 m/s)
Visibility: 10 or more miles (16+ km)
Ceiling: at least 12,000 feet AGL
Clouds: sky clear below 12,000 feet AGL
Weather: automated observation with no human augmentation;
there may or may not be significant weather present at this time

METAR text: KPSP 230953Z AUTO 00000KT 10SM CLR 26/06 A2971 RMK AO2 SLP057 T02610061
Conditions at: KPSP (PALM SPRINGS , CA, US) observed 0953 UTC 23 August 2019
Temperature: 26.1°C (79°F)
Dewpoint: 6.1°C (43°F) [RH = 28%]
Pressure (altimeter): 29.71 inches Hg (1006.2 mb)
[Sea-level pressure: 1005.7 mb]
Winds: calm
Visibility: 10 or more miles (16+ km)
Ceiling: at least 12,000 feet AGL
Clouds: sky clear below 12,000 feet AGL
Weather: automated observation with no human augmentation;
there may or may not be significant weather present at this time

METAR text: KPSP 230853Z AUTO 14004KT 10SM CLR 27/04 A2970 RMK AO2 SLP052 T02670039 51020
Conditions at: KPSP (PALM SPRINGS , CA, US) observed 0853 UTC 23 August 2019
Temperature: 26.7°C (80°F)
Dewpoint: 3.9°C (39°F) [RH = 23%]
Pressure (altimeter): 29.70 inches Hg (1005.8 mb)
[Sea-level pressure: 1005.2 mb]
Winds: from the SE (140 degrees) at 5 MPH (4 knots; 2.1 m/s)
Visibility: 10 or more miles (16+ km)
Ceiling: at least 12,000 feet AGL
Clouds: sky clear below 12,000 feet AGL
Weather: automated observation with no human augmentation;
there may or may not be significant weather present at this time

METAR text: KPSP 230753Z AUTO 00000KT 10SM CLR 29/04 A2969 RMK AO2 SLP047 T02940039 404330244
Conditions at: KPSP (PALM SPRINGS , CA, US) observed 0753 UTC 23 August 2019
Temperature: 29.4°C (85°F)
Dewpoint: 3.9°C (39°F) [RH = 20%]
Pressure (altimeter): 29.69 inches Hg (1005.5 mb)
[Sea-level pressure: 1004.7 mb]
Winds: calm
Visibility: 10 or more miles (16+ km)
Ceiling: at least 12,000 feet AGL
Clouds: sky clear below 12,000 feet AGL
Weather: automated observation with no human augmentation;
there may or may not be significant weather present at this time

METAR text: KPSP 230653Z AUTO 16005KT 10SM CLR 29/04 A2967 RMK AO2 SLP040 T02940039
Conditions at: KPSP (PALM SPRINGS , CA, US) observed 0653 UTC 23 August 2019
Temperature: 29.4°C (85°F)
Dewpoint: 3.9°C (39°F) [RH = 20%]
Pressure (altimeter): 29.67 inches Hg (1004.8 mb)
[Sea-level pressure: 1004.0 mb]
Winds: from the SSE (160 degrees) at 6 MPH (5 knots; 2.6 m/s)
Visibility: 10 or more miles (16+ km)
Ceiling: at least 12,000 feet AGL
Clouds: sky clear below 12,000 feet AGL
Weather: automated observation with no human augmentation;
there may or may not be significant weather present at this time

METAR text: KPSP 230553Z 31010KT 10SM CLR 33/01 A2964 RMK AO2 SLP032 T03280011 10433 20328 51012
Conditions at: KPSP (PALM SPRINGS , CA, US) observed 0553 UTC 23 August 2019
Temperature: 32.8°C (91°F)
Dewpoint: 1.1°C (34°F) [RH = 13%]
Pressure (altimeter): 29.64 inches Hg (1003.8 mb)
[Sea-level pressure: 1003.2 mb]
Winds: from the NW (310 degrees) at 12 MPH (10 knots; 5.1 m/s)
Visibility: 10 or more miles (16+ km)
Ceiling: at least 12,000 feet AGL
Clouds: sky clear below 12,000 feet AGL
Weather: no significant weather observed at this time

METAR text: KPSP 230453Z 31011KT 10SM CLR 34/M01 A2963 RMK AO2 SLP028 T03441006
Conditions at: KPSP (PALM SPRINGS , CA, US) observed 0453 UTC 23 August 2019
Temperature: 34.4°C (94°F)
Dewpoint: -0.6°C (31°F) [RH = 11%]
Pressure (altimeter): 29.63 inches Hg (1003.5 mb)
[Sea-level pressure: 1002.8 mb]
Winds: from the NW (310 degrees) at 13 MPH (11 knots; 5.7 m/s)
Visibility: 10 or more miles (16+ km)
Ceiling: at least 12,000 feet AGL
Clouds: sky clear below 12,000 feet AGL
Weather: no significant weather observed at this time

METAR text: KPSP 230353Z 32017KT 10SM CLR 35/01 A2962 RMK AO2 PK WND 32027/0306 SLP025 T03500006
Conditions at: KPSP (PALM SPRINGS , CA, US) observed 0353 UTC 23 August 2019
Temperature: 35.0°C (95°F)
Dewpoint: 0.6°C (33°F) [RH = 11%]
Pressure (altimeter): 29.62 inches Hg (1003.1 mb)
[Sea-level pressure: 1002.5 mb]
Winds: from the NW (320 degrees) at 20 MPH (17 knots; 8.7 m/s)
Visibility: 10 or more miles (16+ km)
Ceiling: at least 12,000 feet AGL
Clouds: sky clear below 12,000 feet AGL
Weather: no significant weather observed at this time

METAR text: KPSP 230253Z 32019KT 10SM CLR 37/M01 A2961 RMK AO2 SLP020 T03721006 55000
Conditions at: KPSP (PALM SPRINGS , CA, US) observed 0253 UTC 23 August 2019
Temperature: 37.2°C (99°F)
Dewpoint: -0.6°C (31°F) [RH =  9%]
Pressure (altimeter): 29.61 inches Hg (1002.8 mb)
[Sea-level pressure: 1002.0 mb]
Winds: from the NW (320 degrees) at 22 MPH (19 knots; 9.8 m/s)
Visibility: 10 or more miles (16+ km)
Ceiling: at least 12,000 feet AGL
Clouds: sky clear below 12,000 feet AGL
Weather: no significant weather observed at this time

METAR text: KPSP 230153Z 33015G22KT 10SM CLR 39/02 A2960 RMK AO2 SLP020 T03940017
Conditions at: KPSP (PALM SPRINGS , CA, US) observed 0153 UTC 23 August 2019
Temperature: 39.4°C (103°F)
Dewpoint: 1.7°C (35°F) [RH = 10%]
Pressure (altimeter): 29.60 inches Hg (1002.5 mb)
[Sea-level pressure: 1002.0 mb]
Winds: from the NNW (330 degrees) at 17 MPH (15 knots; 7.7 m/s)
gusting to 25 MPH (22 knots; 11.3 m/s)
Visibility: 10 or more miles (16+ km)
Ceiling: at least 12,000 feet AGL
Clouds: sky clear below 12,000 feet AGL
Weather: no significant weather observed at this time

Forecast for: KPSP (PALM SPRINGS , CA, US)
Text: KPSP 241120Z 2412/2512 VRB05KT P6SM SKC
Forecast period: 1200 to 2000 UTC 24 August 2019
Forecast type: FROM: standard forecast or significant change
Winds: variable direction winds at 6 MPH (5 knots; 2.6 m/s)
Visibility: 6 or more miles 10+ km)
Clouds: clear skies
Weather: no significant weather forecast for this period
Text: FM242000 10010KT P6SM SKC
Forecast period: 2000 UTC 24 August 2019 to 0300 UTC 25 August 2019
Forecast type: FROM: standard forecast or significant change
Winds: from the E (100 degrees) at 12 MPH (10 knots; 5.1 m/s)
Visibility: 6 or more miles 10+ km)
Clouds: clear skies
Weather: no significant weather forecast for this period
Text: FM250300 34008KT P6SM SKC
Forecast period: 0300 to 1200 UTC 25 August 2019
Forecast type: FROM: standard forecast or significant change
Winds: from the NNW (340 degrees) at 9 MPH (8 knots; 4.1 m/s)
Visibility: 6 or more miles 10+ km)
Clouds: clear skies
Weather: no significant weather forecast for this period